sensor_id;sensor_type;location;lat;lon;timestamp;temperature;humidity
18141;DHT22;9196;49.194;12.526;2024-01-30T00:01:13;0.10;99.90
18141;DHT22;9196;49.194;12.526;2024-01-30T00:03:39;0.10;99.90
18141;DHT22;9196;49.194;12.526;2024-01-30T00:06:08;0.20;99.90
18141;DHT22;9196;49.194;12.526;2024-01-30T00:08:35;0.00;99.90
18141;DHT22;9196;49.194;12.526;2024-01-30T00:11:02;0.10;99.90
18141;DHT22;9196;49.194;12.526;2024-01-30T00:13:28;0.00;99.90
18141;DHT22;9196;49.194;12.526;2024-01-30T00:15:55;0.00;99.90
18141;DHT22;9196;49.194;12.526;2024-01-30T00:18:22;-0.10;99.90
18141;DHT22;9196;49.194;12.526;2024-01-30T00:20:48;0.00;99.90
18141;DHT22;9196;49.194;12.526;2024-01-30T00:23:17;0.00;99.90
18141;DHT22;9196;49.194;12.526;2024-01-30T00:25:43;-0.10;99.90
18141;DHT22;9196;49.194;12.526;2024-01-30T00:28:10;-0.10;99.90
18141;DHT22;9196;49.194;12.526;2024-01-30T00:30:37;-0.20;99.90
18141;DHT22;9196;49.194;12.526;2024-01-30T00:33:04;-0.20;99.90
18141;DHT22;9196;49.194;12.526;2024-01-30T00:35:31;-0.20;99.90
18141;DHT22;9196;49.194;12.526;2024-01-30T00:37:57;-0.20;99.90
18141;DHT22;9196;49.194;12.526;2024-01-30T00:40:26;-0.20;99.90
18141;DHT22;9196;49.194;12.526;2024-01-30T00:42:52;-0.20;99.90
18141;DHT22;9196;49.194;12.526;2024-01-30T00:45:19;-0.20;99.90
18141;DHT22;9196;49.194;12.526;2024-01-30T00:47:46;-0.20;99.90
18141;DHT22;9196;49.194;12.526;2024-01-30T00:50:13;-0.30;99.90
18141;DHT22;9196;49.194;12.526;2024-01-30T00:52:40;-0.30;99.90
18141;DHT22;9196;49.194;12.526;2024-01-30T00:55:07;-0.30;99.90
18141;DHT22;9196;49.194;12.526;2024-01-30T00:57:35;-0.20;99.90
18141;DHT22;9196;49.194;12.526;2024-01-30T01:00:02;-0.20;99.90
18141;DHT22;9196;49.194;12.526;2024-01-30T01:02:31;-0.30;99.90
18141;DHT22;9196;49.194;12.526;2024-01-30T01:04:58;-0.30;99.90
18141;DHT22;9196;49.194;12.526;2024-01-30T01:07:25;-0.30;99.90
18141;DHT22;9196;49.194;12.526;2024-01-30T01:09:52;-0.40;99.90
18141;DHT22;9196;49.194;12.526;2024-01-30T01:12:18;-0.30;99.90
18141;DHT22;9196;49.194;12.526;2024-01-30T01:14:47;-0.30;99.90
18141;DHT22;9196;49.194;12.526;2024-01-30T01:17:13;-0.40;99.90
18141;DHT22;9196;49.194;12.526;2024-01-30T01:19:40;-0.40;99.90
18141;DHT22;9196;49.194;12.526;2024-01-30T01:22:07;-0.40;99.90
18141;DHT22;9196;49.194;12.526;2024-01-30T01:24:34;-0.40;99.90
18141;DHT22;9196;49.194;12.526;2024-01-30T01:27:01;-0.40;99.90
18141;DHT22;9196;49.194;12.526;2024-01-30T01:29:28;-0.40;99.90
18141;DHT22;9196;49.194;12.526;2024-01-30T01:31:56;-0.40;99.90
18141;DHT22;9196;49.194;12.526;2024-01-30T01:34:23;-0.40;99.90
18141;DHT22;9196;49.194;12.526;2024-01-30T01:36:50;-0.40;99.90
18141;DHT22;9196;49.194;12.526;2024-01-30T01:39:17;-0.30;99.90
18141;DHT22;9196;49.194;12.526;2024-01-30T01:41:44;-0.40;99.90
18141;DHT22;9196;49.194;12.526;2024-01-30T01:44:10;-0.50;99.90
18141;DHT22;9196;49.194;12.526;2024-01-30T01:46:37;-0.50;99.90
18141;DHT22;9196;49.194;12.526;2024-01-30T01:49:07;-0.50;99.90
18141;DHT22;9196;49.194;12.526;2024-01-30T01:51:35;-0.50;99.90
18141;DHT22;9196;49.194;12.526;2024-01-30T01:54:04;-0.50;99.90
18141;DHT22;9196;49.194;12.526;2024-01-30T01:56:31;-0.50;99.90
18141;DHT22;9196;49.194;12.526;2024-01-30T01:59:00;-0.60;99.90
18141;DHT22;9196;49.194;12.526;2024-01-30T02:01:31;-0.60;99.90
18141;DHT22;9196;49.194;12.526;2024-01-30T02:03:59;-0.60;99.90
18141;DHT22;9196;49.194;12.526;2024-01-30T02:06:27;-0.60;99.90
18141;DHT22;9196;49.194;12.526;2024-01-30T02:08:54;-0.70;99.90
18141;DHT22;9196;49.194;12.526;2024-01-30T02:11:22;-0.70;99.90
18141;DHT22;9196;49.194;12.526;2024-01-30T02:13:49;-0.80;99.90
18141;DHT22;9196;49.194;12.526;2024-01-30T02:16:16;-0.80;99.90
18141;DHT22;9196;49.194;12.526;2024-01-30T02:18:43;-0.80;99.90
18141;DHT22;9196;49.194;12.526;2024-01-30T02:21:14;-0.70;99.90
18141;DHT22;9196;49.194;12.526;2024-01-30T02:23:41;-0.80;99.90
18141;DHT22;9196;49.194;12.526;2024-01-30T02:26:09;-0.80;99.90
18141;DHT22;9196;49.194;12.526;2024-01-30T02:28:36;-0.80;99.90
18141;DHT22;9196;49.194;12.526;2024-01-30T02:31:03;-0.90;99.90
18141;DHT22;9196;49.194;12.526;2024-01-30T02:33:31;-0.80;99.90
18141;DHT22;9196;49.194;12.526;2024-01-30T02:35:57;-0.80;99.90
18141;DHT22;9196;49.194;12.526;2024-01-30T02:38:26;-0.80;99.90
18141;DHT22;9196;49.194;12.526;2024-01-30T02:40:54;-0.80;99.90
18141;DHT22;9196;49.194;12.526;2024-01-30T02:43:21;-0.80;99.90
18141;DHT22;9196;49.194;12.526;2024-01-30T02:45:48;-0.90;99.90
18141;DHT22;9196;49.194;12.526;2024-01-30T02:48:15;-0.80;99.90
18141;DHT22;9196;49.194;12.526;2024-01-30T02:50:42;-0.80;99.90
18141;DHT22;9196;49.194;12.526;2024-01-30T02:53:09;-0.90;99.90
18141;DHT22;9196;49.194;12.526;2024-01-30T02:55:37;-0.90;99.90
18141;DHT22;9196;49.194;12.526;2024-01-30T02:58:04;-0.90;99.90
18141;DHT22;9196;49.194;12.526;2024-01-30T03:00:31;-0.90;99.90
18141;DHT22;9196;49.194;12.526;2024-01-30T03:02:58;-1.00;99.90
18141;DHT22;9196;49.194;12.526;2024-01-30T03:05:25;-0.90;99.90
18141;DHT22;9196;49.194;12.526;2024-01-30T03:07:51;-0.90;99.90
18141;DHT22;9196;49.194;12.526;2024-01-30T03:10:18;-0.90;99.90
18141;DHT22;9196;49.194;12.526;2024-01-30T03:12:46;-0.90;99.90
18141;DHT22;9196;49.194;12.526;2024-01-30T03:15:13;-0.90;99.90
18141;DHT22;9196;49.194;12.526;2024-01-30T03:17:41;-0.90;99.90
18141;DHT22;9196;49.194;12.526;2024-01-30T03:20:08;-1.00;99.90
18141;DHT22;9196;49.194;12.526;2024-01-30T03:22:35;-1.00;99.90
18141;DHT22;9196;49.194;12.526;2024-01-30T03:25:03;-1.00;99.90
18141;DHT22;9196;49.194;12.526;2024-01-30T03:27:29;-1.00;99.90
18141;DHT22;9196;49.194;12.526;2024-01-30T03:29:58;-1.00;99.90
18141;DHT22;9196;49.194;12.526;2024-01-30T03:32:25;-1.00;99.90
18141;DHT22;9196;49.194;12.526;2024-01-30T03:34:51;-1.00;99.90
18141;DHT22;9196;49.194;12.526;2024-01-30T03:37:18;-1.10;99.90
18141;DHT22;9196;49.194;12.526;2024-01-30T03:39:45;-1.00;99.90
18141;DHT22;9196;49.194;12.526;2024-01-30T03:42:12;-1.10;99.90
18141;DHT22;9196;49.194;12.526;2024-01-30T03:44:39;-1.10;99.90
18141;DHT22;9196;49.194;12.526;2024-01-30T03:47:07;-1.00;99.90
18141;DHT22;9196;49.194;12.526;2024-01-30T03:49:34;-1.00;99.90
18141;DHT22;9196;49.194;12.526;2024-01-30T03:52:01;-1.00;99.90
18141;DHT22;9196;49.194;12.526;2024-01-30T03:54:27;-1.10;99.90
18141;DHT22;9196;49.194;12.526;2024-01-30T03:56:54;-1.10;99.90
18141;DHT22;9196;49.194;12.526;2024-01-30T03:59:21;-1.10;99.90
18141;DHT22;9196;49.194;12.526;2024-01-30T04:01:49;-1.10;99.90
18141;DHT22;9196;49.194;12.526;2024-01-30T04:04:18;-1.10;99.90
18141;DHT22;9196;49.194;12.526;2024-01-30T04:06:45;-1.20;99.90
18141;DHT22;9196;49.194;12.526;2024-01-30T04:09:12;-1.20;99.90
18141;DHT22;9196;49.194;12.526;2024-01-30T04:11:40;-1.20;99.90
18141;DHT22;9196;49.194;12.526;2024-01-30T04:14:07;-1.20;99.90
18141;DHT22;9196;49.194;12.526;2024-01-30T04:16:34;-1.30;99.90
18141;DHT22;9196;49.194;12.526;2024-01-30T04:19:01;-1.30;99.90
18141;DHT22;9196;49.194;12.526;2024-01-30T04:21:30;-1.30;99.90
18141;DHT22;9196;49.194;12.526;2024-01-30T04:23:57;-1.40;99.90
18141;DHT22;9196;49.194;12.526;2024-01-30T04:26:24;-1.20;99.90
18141;DHT22;9196;49.194;12.526;2024-01-30T04:28:51;-1.30;99.90
18141;DHT22;9196;49.194;12.526;2024-01-30T04:31:18;-1.30;99.90
18141;DHT22;9196;49.194;12.526;2024-01-30T04:33:45;-1.30;99.90
18141;DHT22;9196;49.194;12.526;2024-01-30T04:36:12;-1.30;99.90
18141;DHT22;9196;49.194;12.526;2024-01-30T04:38:40;-1.30;99.90
18141;DHT22;9196;49.194;12.526;2024-01-30T04:41:07;-1.30;99.90
18141;DHT22;9196;49.194;12.526;2024-01-30T04:43:34;-1.20;99.90
18141;DHT22;9196;49.194;12.526;2024-01-30T04:46:01;-1.30;99.90
18141;DHT22;9196;49.194;12.526;2024-01-30T04:48:28;-1.30;99.90
18141;DHT22;9196;49.194;12.526;2024-01-30T04:50:55;-1.30;99.90
18141;DHT22;9196;49.194;12.526;2024-01-30T04:53:22;-1.30;99.90
18141;DHT22;9196;49.194;12.526;2024-01-30T04:55:50;-1.30;99.90
18141;DHT22;9196;49.194;12.526;2024-01-30T04:58:17;-1.30;99.90
18141;DHT22;9196;49.194;12.526;2024-01-30T05:00:43;-1.30;99.90
18141;DHT22;9196;49.194;12.526;2024-01-30T05:03:11;-1.20;99.90
18141;DHT22;9196;49.194;12.526;2024-01-30T05:05:38;-1.20;99.90
18141;DHT22;9196;49.194;12.526;2024-01-30T05:08:05;-1.20;99.90
18141;DHT22;9196;49.194;12.526;2024-01-30T05:10:32;-1.30;99.90
18141;DHT22;9196;49.194;12.526;2024-01-30T05:13:00;-1.30;99.90
18141;DHT22;9196;49.194;12.526;2024-01-30T05:15:27;-1.40;99.90
18141;DHT22;9196;49.194;12.526;2024-01-30T05:17:54;-1.40;99.90
18141;DHT22;9196;49.194;12.526;2024-01-30T05:20:21;-1.40;99.90
18141;DHT22;9196;49.194;12.526;2024-01-30T05:22:48;-1.50;99.90
18141;DHT22;9196;49.194;12.526;2024-01-30T05:25:15;-1.50;99.90
18141;DHT22;9196;49.194;12.526;2024-01-30T05:27:42;-1.50;99.90
18141;DHT22;9196;49.194;12.526;2024-01-30T05:30:11;-1.50;99.90
18141;DHT22;9196;49.194;12.526;2024-01-30T05:32:38;-1.40;99.90
18141;DHT22;9196;49.194;12.526;2024-01-30T05:35:05;-1.50;99.90
18141;DHT22;9196;49.194;12.526;2024-01-30T05:37:33;-1.50;99.90
18141;DHT22;9196;49.194;12.526;2024-01-30T05:40:00;-1.50;99.90
18141;DHT22;9196;49.194;12.526;2024-01-30T05:42:27;-1.50;99.90
18141;DHT22;9196;49.194;12.526;2024-01-30T05:44:54;-1.60;99.90
18141;DHT22;9196;49.194;12.526;2024-01-30T05:47:22;-1.50;99.90
18141;DHT22;9196;49.194;12.526;2024-01-30T05:49:49;-1.50;99.90
18141;DHT22;9196;49.194;12.526;2024-01-30T05:52:16;-1.60;99.90
18141;DHT22;9196;49.194;12.526;2024-01-30T05:54:44;-1.60;99.90
18141;DHT22;9196;49.194;12.526;2024-01-30T05:57:11;-1.60;99.90
18141;DHT22;9196;49.194;12.526;2024-01-30T05:59:38;-1.50;99.90
18141;DHT22;9196;49.194;12.526;2024-01-30T06:02:04;-1.70;99.90
18141;DHT22;9196;49.194;12.526;2024-01-30T06:04:33;-1.60;99.90
18141;DHT22;9196;49.194;12.526;2024-01-30T06:06:59;-1.50;99.90
18141;DHT22;9196;49.194;12.526;2024-01-30T06:09:27;-1.30;99.90
18141;DHT22;9196;49.194;12.526;2024-01-30T06:11:54;-1.10;99.90
18141;DHT22;9196;49.194;12.526;2024-01-30T06:14:21;-0.80;99.90
18141;DHT22;9196;49.194;12.526;2024-01-30T06:16:49;-0.80;99.90
18141;DHT22;9196;49.194;12.526;2024-01-30T06:19:16;-0.90;99.90
18141;DHT22;9196;49.194;12.526;2024-01-30T06:21:44;-1.00;99.90
18141;DHT22;9196;49.194;12.526;2024-01-30T06:24:11;-1.20;99.90
18141;DHT22;9196;49.194;12.526;2024-01-30T06:26:37;-1.20;99.90
18141;DHT22;9196;49.194;12.526;2024-01-30T06:29:04;-1.20;99.90
18141;DHT22;9196;49.194;12.526;2024-01-30T06:31:31;-1.30;99.90
18141;DHT22;9196;49.194;12.526;2024-01-30T06:33:58;-1.30;99.90
18141;DHT22;9196;49.194;12.526;2024-01-30T06:36:24;-1.30;99.90
18141;DHT22;9196;49.194;12.526;2024-01-30T06:38:53;-1.30;99.90
18141;DHT22;9196;49.194;12.526;2024-01-30T06:41:19;-1.30;99.90
18141;DHT22;9196;49.194;12.526;2024-01-30T06:43:47;-1.30;99.90
18141;DHT22;9196;49.194;12.526;2024-01-30T06:46:13;-1.30;99.90
18141;DHT22;9196;49.194;12.526;2024-01-30T06:48:40;-1.30;99.90
18141;DHT22;9196;49.194;12.526;2024-01-30T06:51:10;-1.30;99.90
18141;DHT22;9196;49.194;12.526;2024-01-30T06:53:37;-1.30;99.90
18141;DHT22;9196;49.194;12.526;2024-01-30T06:56:06;-1.30;99.90
18141;DHT22;9196;49.194;12.526;2024-01-30T06:58:33;-1.40;99.90
18141;DHT22;9196;49.194;12.526;2024-01-30T07:00:59;-1.50;99.90
18141;DHT22;9196;49.194;12.526;2024-01-30T07:03:27;-1.50;99.90
18141;DHT22;9196;49.194;12.526;2024-01-30T07:05:54;-1.40;99.90
18141;DHT22;9196;49.194;12.526;2024-01-30T07:08:21;-1.40;99.90
18141;DHT22;9196;49.194;12.526;2024-01-30T07:10:47;-1.40;99.90
18141;DHT22;9196;49.194;12.526;2024-01-30T07:13:16;-1.40;99.90
18141;DHT22;9196;49.194;12.526;2024-01-30T07:15:42;-1.40;99.90
18141;DHT22;9196;49.194;12.526;2024-01-30T07:18:09;-1.40;99.90
18141;DHT22;9196;49.194;12.526;2024-01-30T07:20:36;-1.50;99.90
18141;DHT22;9196;49.194;12.526;2024-01-30T07:23:03;-1.40;99.90
18141;DHT22;9196;49.194;12.526;2024-01-30T07:25:30;-1.40;99.90
18141;DHT22;9196;49.194;12.526;2024-01-30T07:27:57;-1.30;99.90
18141;DHT22;9196;49.194;12.526;2024-01-30T07:30:25;-1.20;99.90
18141;DHT22;9196;49.194;12.526;2024-01-30T07:32:52;-1.20;99.90
18141;DHT22;9196;49.194;12.526;2024-01-30T07:35:19;-1.10;99.90
18141;DHT22;9196;49.194;12.526;2024-01-30T07:37:45;-1.10;99.90
18141;DHT22;9196;49.194;12.526;2024-01-30T07:40:12;-1.10;99.90
18141;DHT22;9196;49.194;12.526;2024-01-30T07:42:39;-1.00;99.90
18141;DHT22;9196;49.194;12.526;2024-01-30T07:45:07;-0.90;99.90
18141;DHT22;9196;49.194;12.526;2024-01-30T07:47:35;-0.80;99.90
18141;DHT22;9196;49.194;12.526;2024-01-30T07:50:02;-0.80;99.90
18141;DHT22;9196;49.194;12.526;2024-01-30T07:52:28;-0.70;99.90
18141;DHT22;9196;49.194;12.526;2024-01-30T07:54:55;-0.80;99.90
18141;DHT22;9196;49.194;12.526;2024-01-30T07:57:22;-0.60;99.90
18141;DHT22;9196;49.194;12.526;2024-01-30T07:59:49;-0.70;99.90
18141;DHT22;9196;49.194;12.526;2024-01-30T08:02:16;-0.70;99.90
18141;DHT22;9196;49.194;12.526;2024-01-30T08:04:44;-0.60;99.90
18141;DHT22;9196;49.194;12.526;2024-01-30T08:07:14;-0.40;99.90
18141;DHT22;9196;49.194;12.526;2024-01-30T08:09:40;-0.30;99.90
18141;DHT22;9196;49.194;12.526;2024-01-30T08:12:07;-0.20;99.90
18141;DHT22;9196;49.194;12.526;2024-01-30T08:14:34;-0.10;99.90
18141;DHT22;9196;49.194;12.526;2024-01-30T08:17:01;-0.10;99.90
18141;DHT22;9196;49.194;12.526;2024-01-30T08:19:27;0.00;99.90
18141;DHT22;9196;49.194;12.526;2024-01-30T08:21:56;0.10;99.90
18141;DHT22;9196;49.194;12.526;2024-01-30T08:24:23;0.20;99.90
18141;DHT22;9196;49.194;12.526;2024-01-30T08:26:49;0.20;99.90
18141;DHT22;9196;49.194;12.526;2024-01-30T08:29:16;0.30;99.90
18141;DHT22;9196;49.194;12.526;2024-01-30T08:31:43;0.40;99.90
18141;DHT22;9196;49.194;12.526;2024-01-30T08:34:11;0.50;99.90
18141;DHT22;9196;49.194;12.526;2024-01-30T08:36:38;0.60;99.90
18141;DHT22;9196;49.194;12.526;2024-01-30T08:39:06;0.70;99.90
18141;DHT22;9196;49.194;12.526;2024-01-30T08:41:33;0.80;99.90
18141;DHT22;9196;49.194;12.526;2024-01-30T08:44:00;0.90;99.90
18141;DHT22;9196;49.194;12.526;2024-01-30T08:46:26;0.90;99.90
18141;DHT22;9196;49.194;12.526;2024-01-30T08:48:53;1.00;99.90
18141;DHT22;9196;49.194;12.526;2024-01-30T08:51:20;1.10;99.90
18141;DHT22;9196;49.194;12.526;2024-01-30T08:53:47;1.10;99.90
18141;DHT22;9196;49.194;12.526;2024-01-30T08:56:15;1.20;99.90
18141;DHT22;9196;49.194;12.526;2024-01-30T08:58:42;1.20;99.90
18141;DHT22;9196;49.194;12.526;2024-01-30T09:01:09;1.30;99.90
18141;DHT22;9196;49.194;12.526;2024-01-30T09:03:36;1.30;99.90
18141;DHT22;9196;49.194;12.526;2024-01-30T09:06:08;1.40;99.90
18141;DHT22;9196;49.194;12.526;2024-01-30T09:08:35;1.50;99.90
18141;DHT22;9196;49.194;12.526;2024-01-30T09:11:02;1.70;99.90
18141;DHT22;9196;49.194;12.526;2024-01-30T09:13:36;1.80;99.90
18141;DHT22;9196;49.194;12.526;2024-01-30T09:16:03;1.90;99.90
18141;DHT22;9196;49.194;12.526;2024-01-30T09:18:30;2.00;99.90
18141;DHT22;9196;49.194;12.526;2024-01-30T09:20:57;2.00;99.90
18141;DHT22;9196;49.194;12.526;2024-01-30T09:23:24;2.10;99.90
18141;DHT22;9196;49.194;12.526;2024-01-30T09:25:51;2.30;99.90
18141;DHT22;9196;49.194;12.526;2024-01-30T09:28:18;2.40;99.90
18141;DHT22;9196;49.194;12.526;2024-01-30T09:30:46;2.50;99.90
18141;DHT22;9196;49.194;12.526;2024-01-30T09:33:13;2.60;99.90
18141;DHT22;9196;49.194;12.526;2024-01-30T09:35:39;2.70;99.90
18141;DHT22;9196;49.194;12.526;2024-01-30T09:38:06;2.80;99.90
18141;DHT22;9196;49.194;12.526;2024-01-30T09:40:33;2.80;99.90
18141;DHT22;9196;49.194;12.526;2024-01-30T09:43:00;2.90;99.90
18141;DHT22;9196;49.194;12.526;2024-01-30T09:45:27;2.90;99.90
18141;DHT22;9196;49.194;12.526;2024-01-30T09:47:56;3.00;99.90
18141;DHT22;9196;49.194;12.526;2024-01-30T09:50:26;3.00;99.90
18141;DHT22;9196;49.194;12.526;2024-01-30T09:52:55;3.20;99.90
18141;DHT22;9196;49.194;12.526;2024-01-30T09:55:24;3.30;99.90
18141;DHT22;9196;49.194;12.526;2024-01-30T09:57:51;3.50;99.90
18141;DHT22;9196;49.194;12.526;2024-01-30T10:00:18;3.60;99.90
18141;DHT22;9196;49.194;12.526;2024-01-30T10:02:45;3.50;99.90
18141;DHT22;9196;49.194;12.526;2024-01-30T10:05:15;3.60;99.90
18141;DHT22;9196;49.194;12.526;2024-01-30T10:07:52;3.80;99.90
18141;DHT22;9196;49.194;12.526;2024-01-30T10:10:21;3.80;99.90
18141;DHT22;9196;49.194;12.526;2024-01-30T10:12:48;3.90;99.90
18141;DHT22;9196;49.194;12.526;2024-01-30T10:15:15;3.90;99.90
18141;DHT22;9196;49.194;12.526;2024-01-30T10:17:42;4.10;99.90
18141;DHT22;9196;49.194;12.526;2024-01-30T10:20:10;4.10;99.90
18141;DHT22;9196;49.194;12.526;2024-01-30T10:22:39;4.00;99.90
18141;DHT22;9196;49.194;12.526;2024-01-30T10:25:06;4.20;99.90
18141;DHT22;9196;49.194;12.526;2024-01-30T10:27:34;4.40;99.90
18141;DHT22;9196;49.194;12.526;2024-01-30T10:30:01;4.50;99.90
18141;DHT22;9196;49.194;12.526;2024-01-30T10:32:29;4.50;99.90
18141;DHT22;9196;49.194;12.526;2024-01-30T10:34:56;4.60;99.90
18141;DHT22;9196;49.194;12.526;2024-01-30T10:37:25;4.70;99.90
18141;DHT22;9196;49.194;12.526;2024-01-30T10:39:54;4.80;99.90
18141;DHT22;9196;49.194;12.526;2024-01-30T10:42:26;4.80;99.90
18141;DHT22;9196;49.194;12.526;2024-01-30T10:44:57;4.80;99.90
18141;DHT22;9196;49.194;12.526;2024-01-30T10:47:27;4.90;99.90
18141;DHT22;9196;49.194;12.526;2024-01-30T10:49:55;5.00;99.90
18141;DHT22;9196;49.194;12.526;2024-01-30T10:52:23;5.30;99.90
18141;DHT22;9196;49.194;12.526;2024-01-30T10:54:52;5.50;99.90
18141;DHT22;9196;49.194;12.526;2024-01-30T10:57:23;5.70;99.90
18141;DHT22;9196;49.194;12.526;2024-01-30T10:59:51;5.70;99.90
18141;DHT22;9196;49.194;12.526;2024-01-30T11:02:19;5.60;99.90
18141;DHT22;9196;49.194;12.526;2024-01-30T11:04:46;5.70;99.90
18141;DHT22;9196;49.194;12.526;2024-01-30T11:07:17;5.90;99.90
18141;DHT22;9196;49.194;12.526;2024-01-30T11:09:50;6.00;99.90
18141;DHT22;9196;49.194;12.526;2024-01-30T11:12:23;6.10;99.90
18141;DHT22;9196;49.194;12.526;2024-01-30T11:15:01;6.20;99.90
18141;DHT22;9196;49.194;12.526;2024-01-30T11:17:40;6.40;99.90
18141;DHT22;9196;49.194;12.526;2024-01-30T11:20:10;6.60;99.90
18141;DHT22;9196;49.194;12.526;2024-01-30T11:22:37;6.60;99.90
18141;DHT22;9196;49.194;12.526;2024-01-30T11:25:04;6.60;99.90
18141;DHT22;9196;49.194;12.526;2024-01-30T11:27:32;6.60;99.90
18141;DHT22;9196;49.194;12.526;2024-01-30T11:30:01;6.70;99.90
18141;DHT22;9196;49.194;12.526;2024-01-30T11:32:28;6.70;99.90
18141;DHT22;9196;49.194;12.526;2024-01-30T11:34:55;6.80;99.90
18141;DHT22;9196;49.194;12.526;2024-01-30T11:37:25;6.90;99.90
18141;DHT22;9196;49.194;12.526;2024-01-30T11:39:53;7.10;99.90
18141;DHT22;9196;49.194;12.526;2024-01-30T11:42:22;7.10;99.90
18141;DHT22;9196;49.194;12.526;2024-01-30T11:44:51;7.20;99.90
18141;DHT22;9196;49.194;12.526;2024-01-30T11:47:18;7.50;99.90
18141;DHT22;9196;49.194;12.526;2024-01-30T11:49:45;7.80;99.90
18141;DHT22;9196;49.194;12.526;2024-01-30T11:52:13;8.00;99.90
18141;DHT22;9196;49.194;12.526;2024-01-30T11:54:40;8.20;99.90
18141;DHT22;9196;49.194;12.526;2024-01-30T11:57:07;8.40;99.90
18141;DHT22;9196;49.194;12.526;2024-01-30T11:59:34;8.60;99.90
18141;DHT22;9196;49.194;12.526;2024-01-30T12:02:02;8.70;99.80
18141;DHT22;9196;49.194;12.526;2024-01-30T12:04:29;8.80;99.90
18141;DHT22;9196;49.194;12.526;2024-01-30T12:06:56;9.10;99.40
18141;DHT22;9196;49.194;12.526;2024-01-30T12:09:23;9.30;99.20
18141;DHT22;9196;49.194;12.526;2024-01-30T12:11:50;9.50;98.20
18141;DHT22;9196;49.194;12.526;2024-01-30T12:14:17;9.70;96.40
18141;DHT22;9196;49.194;12.526;2024-01-30T12:16:48;9.50;96.00
18141;DHT22;9196;49.194;12.526;2024-01-30T12:19:22;9.00;95.60
18141;DHT22;9196;49.194;12.526;2024-01-30T12:21:54;8.70;96.40
18141;DHT22;9196;49.194;12.526;2024-01-30T12:24:21;8.90;96.70
18141;DHT22;9196;49.194;12.526;2024-01-30T12:26:48;9.00;97.20
18141;DHT22;9196;49.194;12.526;2024-01-30T12:29:15;9.40;97.80
18141;DHT22;9196;49.194;12.526;2024-01-30T12:31:42;9.90;96.50
18141;DHT22;9196;49.194;12.526;2024-01-30T12:34:09;10.10;94.60
18141;DHT22;9196;49.194;12.526;2024-01-30T12:36:37;10.50;94.50
18141;DHT22;9196;49.194;12.526;2024-01-30T12:39:04;10.90;93.30
18141;DHT22;9196;49.194;12.526;2024-01-30T12:41:31;10.90;91.80
18141;DHT22;9196;49.194;12.526;2024-01-30T12:43:58;10.90;91.40
18141;DHT22;9196;49.194;12.526;2024-01-30T12:46:27;10.60;90.90
18141;DHT22;9196;49.194;12.526;2024-01-30T12:48:54;10.50;91.00
18141;DHT22;9196;49.194;12.526;2024-01-30T12:51:21;10.40;90.50
18141;DHT22;9196;49.194;12.526;2024-01-30T12:53:49;10.30;91.20
18141;DHT22;9196;49.194;12.526;2024-01-30T12:56:16;10.10;90.00
18141;DHT22;9196;49.194;12.526;2024-01-30T12:58:43;10.30;90.70
18141;DHT22;9196;49.194;12.526;2024-01-30T13:01:09;10.60;91.30
18141;DHT22;9196;49.194;12.526;2024-01-30T13:03:36;10.80;90.80
18141;DHT22;9196;49.194;12.526;2024-01-30T13:06:04;11.00;90.60
18141;DHT22;9196;49.194;12.526;2024-01-30T13:08:30;11.30;90.60
18141;DHT22;9196;49.194;12.526;2024-01-30T13:10:58;11.60;89.10
18141;DHT22;9196;49.194;12.526;2024-01-30T13:13:25;11.60;88.90
18141;DHT22;9196;49.194;12.526;2024-01-30T13:15:52;11.70;87.80
18141;DHT22;9196;49.194;12.526;2024-01-30T13:18:19;11.60;86.90
18141;DHT22;9196;49.194;12.526;2024-01-30T13:20:46;11.40;88.20
18141;DHT22;9196;49.194;12.526;2024-01-30T13:23:12;11.20;88.50
18141;DHT22;9196;49.194;12.526;2024-01-30T13:25:39;11.00;87.80
18141;DHT22;9196;49.194;12.526;2024-01-30T13:28:07;10.70;90.10
18141;DHT22;9196;49.194;12.526;2024-01-30T13:30:34;10.70;90.70
18141;DHT22;9196;49.194;12.526;2024-01-30T13:33:01;10.70;90.90
18141;DHT22;9196;49.194;12.526;2024-01-30T13:35:28;11.00;91.20
18141;DHT22;9196;49.194;12.526;2024-01-30T13:37:55;11.20;90.70
18141;DHT22;9196;49.194;12.526;2024-01-30T13:40:22;11.40;90.00
18141;DHT22;9196;49.194;12.526;2024-01-30T13:42:49;11.50;89.50
18141;DHT22;9196;49.194;12.526;2024-01-30T13:45:17;11.60;90.00
18141;DHT22;9196;49.194;12.526;2024-01-30T13:47:44;11.70;88.30
18141;DHT22;9196;49.194;12.526;2024-01-30T13:50:10;11.80;88.70
18141;DHT22;9196;49.194;12.526;2024-01-30T13:52:40;11.90;89.60
18141;DHT22;9196;49.194;12.526;2024-01-30T13:55:07;11.80;87.50
18141;DHT22;9196;49.194;12.526;2024-01-30T13:57:35;11.70;87.90
18141;DHT22;9196;49.194;12.526;2024-01-30T14:00:02;11.60;87.50
18141;DHT22;9196;49.194;12.526;2024-01-30T14:02:32;11.50;88.10
18141;DHT22;9196;49.194;12.526;2024-01-30T14:04:59;11.40;89.20
18141;DHT22;9196;49.194;12.526;2024-01-30T14:07:26;11.20;89.30
18141;DHT22;9196;49.194;12.526;2024-01-30T14:09:52;11.00;90.00
18141;DHT22;9196;49.194;12.526;2024-01-30T14:12:19;11.00;90.30
18141;DHT22;9196;49.194;12.526;2024-01-30T14:14:46;10.90;90.50
18141;DHT22;9196;49.194;12.526;2024-01-30T14:17:13;10.80;90.40
18141;DHT22;9196;49.194;12.526;2024-01-30T14:19:41;10.80;90.50
18141;DHT22;9196;49.194;12.526;2024-01-30T14:22:08;10.80;90.30
18141;DHT22;9196;49.194;12.526;2024-01-30T14:24:34;10.70;90.30
18141;DHT22;9196;49.194;12.526;2024-01-30T14:27:02;10.80;90.60
18141;DHT22;9196;49.194;12.526;2024-01-30T14:29:29;10.70;91.30
18141;DHT22;9196;49.194;12.526;2024-01-30T14:31:56;10.70;91.70
18141;DHT22;9196;49.194;12.526;2024-01-30T14:34:23;10.60;91.60
18141;DHT22;9196;49.194;12.526;2024-01-30T14:36:51;10.30;91.80
18141;DHT22;9196;49.194;12.526;2024-01-30T14:39:18;10.30;91.40
18141;DHT22;9196;49.194;12.526;2024-01-30T14:41:45;10.20;91.50
18141;DHT22;9196;49.194;12.526;2024-01-30T14:44:12;10.20;91.60
18141;DHT22;9196;49.194;12.526;2024-01-30T14:46:39;10.10;91.70
18141;DHT22;9196;49.194;12.526;2024-01-30T14:49:06;10.10;91.70
18141;DHT22;9196;49.194;12.526;2024-01-30T14:51:35;10.20;91.90
18141;DHT22;9196;49.194;12.526;2024-01-30T14:54:03;10.20;91.90
18141;DHT22;9196;49.194;12.526;2024-01-30T14:56:30;10.10;91.80
18141;DHT22;9196;49.194;12.526;2024-01-30T14:58:58;10.10;91.70
18141;DHT22;9196;49.194;12.526;2024-01-30T15:01:25;10.10;91.80
18141;DHT22;9196;49.194;12.526;2024-01-30T15:03:51;10.10;91.90
18141;DHT22;9196;49.194;12.526;2024-01-30T15:06:18;10.00;92.30
18141;DHT22;9196;49.194;12.526;2024-01-30T15:08:48;9.90;93.10
18141;DHT22;9196;49.194;12.526;2024-01-30T15:11:16;9.80;93.70
18141;DHT22;9196;49.194;12.526;2024-01-30T15:13:43;9.70;94.10
18141;DHT22;9196;49.194;12.526;2024-01-30T15:16:10;9.60;94.40
18141;DHT22;9196;49.194;12.526;2024-01-30T15:18:37;9.50;94.80
18141;DHT22;9196;49.194;12.526;2024-01-30T15:21:04;9.30;95.30
18141;DHT22;9196;49.194;12.526;2024-01-30T15:23:31;9.10;95.80
18141;DHT22;9196;49.194;12.526;2024-01-30T15:25:58;9.00;96.20
18141;DHT22;9196;49.194;12.526;2024-01-30T15:28:35;8.90;96.60
18141;DHT22;9196;49.194;12.526;2024-01-30T15:31:03;8.70;97.20
18141;DHT22;9196;49.194;12.526;2024-01-30T15:33:30;8.60;98.00
18141;DHT22;9196;49.194;12.526;2024-01-30T15:35:57;8.50;98.50